Time;durP1;ratioP1;P1;durP2;ratioP2;P2;SDS_P1;SDS_P2;PMS_P1;PMS_P2;Temp;Humidity;BMP_temperature;BMP_pressure;BME280_temperature;BME280_humidity;BME280_pressure;Samples;Min_cycle;Max_cycle;Signal;HPM_P1;HPM_P2
2023/02/26 00:01:29;;;;;;;2.83;1.40;;;;;;;;;;5112843;28;20024;-37
2023/02/26 00:03:56;;;;;;;2.63;1.20;;;;;;;;;;5112673;27;20027;-34
2023/02/26 00:06:23;;;;;;;1.88;0.93;;;;;;;;;;5112600;28;20035;-39
2023/02/26 00:08:49;;;;;;;2.90;1.30;;;;;;;;;;5112968;28;20024;-33
2023/02/26 00:11:15;;;;;;;2.70;1.30;;;;;;;;;;5112710;28;20381;-33
2023/02/26 00:13:42;;;;;;;3.53;1.13;;;;;;;;;;5112641;28;20030;-31
2023/02/26 00:16:20;;;;;;;4.72;1.50;;;;;;;;;;5112131;28;20082;-33
2023/02/26 00:18:46;;;;;;;2.72;1.10;;;;;;;;;;5112461;28;20030;-40
2023/02/26 00:21:19;;;;;;;2.00;1.00;;;;;;;;;;5111012;28;20114;-42
2023/02/26 00:23:45;;;;;;;3.28;1.50;;;;;;;;;;5112369;27;20085;-42
2023/02/26 00:26:11;;;;;;;2.65;1.38;;;;;;;;;;5112257;28;20190;-42
2023/02/26 00:28:37;;;;;;;2.83;1.30;;;;;;;;;;5112294;28;20027;-42
2023/02/26 00:31:04;;;;;;;3.95;1.33;;;;;;;;;;5112159;28;20042;-36
2023/02/26 00:33:30;;;;;;;4.40;1.08;;;;;;;;;;5112226;28;20385;-34
2023/02/26 00:36:00;;;;;;;5.18;1.30;;;;;;;;;;5112146;28;20132;-35
2023/02/26 00:38:27;;;;;;;3.00;1.08;;;;;;;;;;5112350;28;20015;-40
2023/02/26 00:40:55;;;;;;;2.60;1.20;;;;;;;;;;5112001;28;20027;-32
2023/02/26 00:43:23;;;;;;;3.90;1.40;;;;;;;;;;5112387;28;20016;-42
2023/02/26 00:45:55;;;;;;;2.47;1.10;;;;;;;;;;5111592;28;20064;-36
2023/02/26 00:48:21;;;;;;;4.07;1.30;;;;;;;;;;5111924;28;20059;-35
2023/02/26 00:50:53;;;;;;;3.17;1.15;;;;;;;;;;5111856;28;20100;-37
2023/02/26 00:53:43;;;;;;;2.08;1.10;;;;;;;;;;5111908;28;20028;-33
2023/02/26 00:56:09;;;;;;;3.40;1.20;;;;;;;;;;5091787;28;20432;-33
2023/02/26 00:58:35;;;;;;;2.33;1.35;;;;;;;;;;5111842;28;20576;-33
2023/02/26 01:01:01;;;;;;;1.73;0.90;;;;;;;;;;5111980;28;20034;-32
2023/02/26 01:03:27;;;;;;;3.67;1.10;;;;;;;;;;5112066;28;20031;-32
2023/02/26 01:05:53;;;;;;;2.45;1.20;;;;;;;;;;5112802;28;20034;-32
2023/02/26 01:08:23;;;;;;;2.20;1.10;;;;;;;;;;5111610;28;20027;-32
2023/02/26 01:10:49;;;;;;;2.60;1.08;;;;;;;;;;5111650;28;20111;-32
2023/02/26 01:13:15;;;;;;;3.17;1.17;;;;;;;;;;5112041;28;20034;-35
2023/02/26 01:15:44;;;;;;;2.50;1.10;;;;;;;;;;5111559;28;20028;-42
2023/02/26 01:18:15;;;;;;;2.80;1.30;;;;;;;;;;5111658;28;20112;-39
2023/02/26 01:20:47;;;;;;;1.70;1.10;;;;;;;;;;5111596;28;20115;-33
2023/02/26 01:23:19;;;;;;;2.75;1.10;;;;;;;;;;5112290;28;20023;-32
2023/02/26 01:25:45;;;;;;;2.60;1.08;;;;;;;;;;5111616;28;20027;-42
2023/02/26 01:28:11;;;;;;;4.93;1.52;;;;;;;;;;5112317;28;20039;-39
2023/02/26 01:30:38;;;;;;;3.45;1.08;;;;;;;;;;5111480;28;20038;-41
2023/02/26 01:33:04;;;;;;;3.10;1.15;;;;;;;;;;5111470;28;20485;-41
2023/02/26 01:35:45;;;;;;;2.63;1.20;;;;;;;;;;5111339;28;20470;-34
2023/02/26 01:38:17;;;;;;;3.00;1.20;;;;;;;;;;5112395;28;20076;-33
2023/02/26 01:40:45;;;;;;;5.30;1.20;;;;;;;;;;5112159;28;20051;-37
2023/02/26 01:43:20;;;;;;;2.65;1.10;;;;;;;;;;5111480;28;20031;-37
2023/02/26 01:46:00;;;;;;;1.95;0.95;;;;;;;;;;5113364;28;20457;-33
2023/02/26 01:48:29;;;;;;;2.38;1.02;;;;;;;;;;5113430;28;20024;-34
2023/02/26 01:50:55;;;;;;;2.25;1.23;;;;;;;;;;5111182;28;20020;-36
2023/02/26 01:53:23;;;;;;;2.67;1.20;;;;;;;;;;5113007;28;20109;-36
2023/02/26 01:55:57;;;;;;;3.75;1.30;;;;;;;;;;5112134;28;20362;-38
2023/02/26 01:58:25;;;;;;;1.63;0.90;;;;;;;;;;5114060;28;20076;-40
2023/02/26 02:00:51;;;;;;;2.53;1.20;;;;;;;;;;5115711;28;20076;-40
2023/02/26 02:03:18;;;;;;;2.67;1.17;;;;;;;;;;5115054;28;20106;-41
2023/02/26 02:05:49;;;;;;;4.20;1.00;;;;;;;;;;5114801;28;20477;-42
2023/02/26 02:08:15;;;;;;;2.78;1.10;;;;;;;;;;5114986;28;20024;-33
2023/02/26 02:10:43;;;;;;;2.78;1.10;;;;;;;;;;5116445;28;20023;-33
2023/02/26 02:13:15;;;;;;;2.50;1.00;;;;;;;;;;5115825;28;20027;-35
2023/02/26 02:15:45;;;;;;;3.03;1.20;;;;;;;;;;5115483;28;20079;-32
2023/02/26 02:18:22;;;;;;;3.72;1.27;;;;;;;;;;5116485;27;20031;-34
2023/02/26 02:21:16;;;;;;;1.83;1.20;;;;;;;;;;5116697;28;20034;-34
2023/02/26 02:23:44;;;;;;;3.55;1.30;;;;;;;;;;5114810;28;20101;-37
2023/02/26 02:26:35;;;;;;;2.72;1.05;;;;;;;;;;5114584;28;20030;-36
2023/02/26 02:29:13;;;;;;;3.08;1.00;;;;;;;;;;5114679;28;20111;-32
2023/02/26 02:32:05;;;;;;;2.03;1.00;;;;;;;;;;5114370;28;20058;-35
2023/02/26 02:34:37;;;;;;;2.78;0.90;;;;;;;;;;5114136;28;20032;-31
2023/02/26 02:37:13;;;;;;;2.55;1.20;;;;;;;;;;5114981;28;20028;-35
2023/02/26 02:39:58;;;;;;;3.63;1.15;;;;;;;;;;5115825;28;20024;-35
2023/02/26 02:42:31;;;;;;;2.45;1.08;;;;;;;;;;5114239;28;20444;-34
2023/02/26 02:45:00;;;;;;;2.40;0.90;;;;;;;;;;5114272;28;20019;-34
2023/02/26 02:47:28;;;;;;;2.53;1.10;;;;;;;;;;5114012;28;20419;-34
2023/02/26 02:50:07;;;;;;;2.45;1.10;;;;;;;;;;5115733;28;20027;-33
2023/02/26 02:52:54;;;;;;;1.95;1.17;;;;;;;;;;5113982;28;20074;-35
2023/02/26 02:55:30;;;;;;;2.25;0.85;;;;;;;;;;5113968;28;20024;-38
2023/02/26 02:58:07;;;;;;;4.55;1.20;;;;;;;;;;5113855;28;20020;-38
2023/02/26 03:00:35;;;;;;;2.30;1.13;;;;;;;;;;5113850;28;20517;-34
2023/02/26 03:03:09;;;;;;;2.55;1.17;;;;;;;;;;5114500;28;20028;-35
2023/02/26 03:05:35;;;;;;;2.50;1.10;;;;;;;;;;5114566;28;20026;-35
2023/02/26 03:08:11;;;;;;;3.40;0.98;;;;;;;;;;5114649;28;20049;-41
2023/02/26 03:10:37;;;;;;;1.77;0.98;;;;;;;;;;5113929;28;20107;-40
2023/02/26 03:13:04;;;;;;;2.15;1.02;;;;;;;;;;5113948;28;20059;-37
2023/02/26 03:15:53;;;;;;;2.97;1.10;;;;;;;;;;5113559;28;20027;-39
2023/02/26 03:18:36;;;;;;;4.53;1.30;;;;;;;;;;5114280;28;20028;-38
2023/02/26 03:21:11;;;;;;;3.97;1.13;;;;;;;;;;5113520;28;20107;-39
2023/02/26 03:23:43;;;;;;;2.30;1.10;;;;;;;;;;5114391;28;20016;-38
2023/02/26 03:26:14;;;;;;;2.70;1.15;;;;;;;;;;5113269;28;20024;-38
2023/02/26 03:28:56;;;;;;;3.13;1.02;;;;;;;;;;5113421;28;20152;-35
2023/02/26 03:31:22;;;;;;;3.55;1.20;;;;;;;;;;5113403;27;20115;-37
2023/02/26 03:34:00;;;;;;;2.55;0.93;;;;;;;;;;5113267;28;20070;-39
2023/02/26 03:36:52;;;;;;;2.88;1.00;;;;;;;;;;5112956;28;20024;-41
2023/02/26 03:39:31;;;;;;;4.28;1.30;;;;;;;;;;5111040;28;20032;-39
2023/02/26 03:42:00;;;;;;;1.48;0.90;;;;;;;;;;5113207;28;20023;-40
2023/02/26 03:44:34;;;;;;;2.28;1.00;;;;;;;;;;5113163;28;20027;-38
2023/02/26 03:47:02;;;;;;;1.05;0.80;;;;;;;;;;5112851;27;20024;-40
2023/02/26 03:49:33;;;;;;;2.28;1.00;;;;;;;;;;5112823;28;20024;-39
2023/02/26 03:52:00;;;;;;;4.03;1.20;;;;;;;;;;5111497;28;20489;-40
2023/02/26 03:54:30;;;;;;;2.55;1.25;;;;;;;;;;5113772;28;20148;-41
2023/02/26 03:56:56;;;;;;;3.60;1.25;;;;;;;;;;5113032;28;20111;-38
2023/02/26 03:59:23;;;;;;;2.03;1.27;;;;;;;;;;5112981;28;20032;-39
2023/02/26 04:01:49;;;;;;;2.28;1.10;;;;;;;;;;5113443;28;20028;-38
2023/02/26 04:04:27;;;;;;;2.65;0.98;;;;;;;;;;5113243;28;20027;-38
2023/02/26 04:06:53;;;;;;;2.22;1.10;;;;;;;;;;5112462;28;20077;-40
2023/02/26 04:09:20;;;;;;;1.85;1.05;;;;;;;;;;5112544;28;20031;-39
2023/02/26 04:11:48;;;;;;;4.28;1.33;;;;;;;;;;5112504;28;20099;-40
2023/02/26 04:14:14;;;;;;;3.00;1.23;;;;;;;;;;5112924;28;20020;-41
2023/02/26 04:16:40;;;;;;;3.00;1.20;;;;;;;;;;5111939;28;20034;-35
2023/02/26 04:19:07;;;;;;;3.30;1.00;;;;;;;;;;5113418;28;20331;-41
2023/02/26 04:21:33;;;;;;;2.47;0.95;;;;;;;;;;5112463;28;20023;-41
2023/02/26 04:23:59;;;;;;;3.08;1.10;;;;;;;;;;5112258;28;20020;-35
2023/02/26 04:26:25;;;;;;;2.53;1.10;;;;;;;;;;5112112;28;20050;-42
2023/02/26 04:28:51;;;;;;;2.97;1.33;;;;;;;;;;5112428;28;20193;-40
2023/02/26 04:31:17;;;;;;;3.60;1.25;;;;;;;;;;5112229;28;20397;-40
2023/02/26 04:33:43;;;;;;;1.40;0.95;;;;;;;;;;5112217;28;20489;-41
2023/02/26 04:36:09;;;;;;;3.47;1.33;;;;;;;;;;5112704;28;20266;-39
2023/02/26 04:38:35;;;;;;;3.58;1.10;;;;;;;;;;5112412;28;20022;-39
2023/02/26 04:41:01;;;;;;;2.90;1.30;;;;;;;;;;5112034;28;20380;-41
2023/02/26 04:43:28;;;;;;;3.13;1.20;;;;;;;;;;5112341;28;20050;-39
2023/02/26 04:45:54;;;;;;;2.63;1.27;;;;;;;;;;5111894;28;20024;-36
2023/02/26 04:48:20;;;;;;;3.28;0.98;;;;;;;;;;5111946;28;20111;-38
2023/02/26 04:50:46;;;;;;;3.67;1.23;;;;;;;;;;5111922;28;20102;-41
2023/02/26 04:53:12;;;;;;;2.40;1.33;;;;;;;;;;5111859;28;20115;-41
2023/02/26 04:55:39;;;;;;;4.07;1.67;;;;;;;;;;5111791;28;20093;-37
2023/02/26 04:58:06;;;;;;;2.13;1.55;;;;;;;;;;5111735;28;20016;-38
2023/02/26 05:00:32;;;;;;;3.15;1.85;;;;;;;;;;5112424;28;20076;-41
2023/02/26 05:02:58;;;;;;;2.05;1.33;;;;;;;;;;5112113;28;20030;-40
2023/02/26 05:05:24;;;;;;;2.67;1.25;;;;;;;;;;5113188;28;20027;-40
2023/02/26 05:07:52;;;;;;;3.30;1.33;;;;;;;;;;5111531;28;20024;-41
2023/02/26 05:10:18;;;;;;;2.50;1.20;;;;;;;;;;5112604;28;20024;-39
2023/02/26 05:12:44;;;;;;;3.28;1.30;;;;;;;;;;5112343;28;20023;-41
2023/02/26 05:15:11;;;;;;;3.03;1.52;;;;;;;;;;5111675;28;20027;-39
2023/02/26 05:17:37;;;;;;;3.17;1.42;;;;;;;;;;5111327;28;20035;-39
2023/02/26 05:20:04;;;;;;;2.25;1.10;;;;;;;;;;5111775;28;20024;-39
2023/02/26 05:22:30;;;;;;;2.83;1.45;;;;;;;;;;5111452;28;20024;-38
2023/02/26 05:24:56;;;;;;;4.03;1.70;;;;;;;;;;5112694;28;20075;-40
2023/02/26 05:27:22;;;;;;;2.20;1.05;;;;;;;;;;5111372;28;20035;-41
2023/02/26 05:29:48;;;;;;;3.45;1.30;;;;;;;;;;5111630;28;20027;-38
2023/02/26 05:32:14;;;;;;;4.97;1.73;;;;;;;;;;5114176;28;20027;-39
2023/02/26 05:34:40;;;;;;;2.55;1.30;;;;;;;;;;5116403;28;20062;-36
2023/02/26 05:37:06;;;;;;;1.42;1.10;;;;;;;;;;5116802;28;20067;-39
2023/02/26 05:39:32;;;;;;;2.72;1.38;;;;;;;;;;5114238;28;20026;-37
2023/02/26 05:41:58;;;;;;;3.28;1.50;;;;;;;;;;5115453;28;20102;-42
2023/02/26 05:44:24;;;;;;;3.58;1.48;;;;;;;;;;5116281;28;20034;-41
2023/02/26 05:46:50;;;;;;;4.03;1.48;;;;;;;;;;5116663;28;20647;-34
2023/02/26 05:49:16;;;;;;;2.85;1.30;;;;;;;;;;5115305;28;20066;-35
2023/02/26 05:51:42;;;;;;;3.50;1.10;;;;;;;;;;5115227;28;20473;-33
2023/02/26 05:54:08;;;;;;;2.17;1.33;;;;;;;;;;5116581;28;20035;-31
2023/02/26 05:56:35;;;;;;;2.05;1.27;;;;;;;;;;5116504;28;20031;-36
2023/02/26 05:59:01;;;;;;;3.08;1.50;;;;;;;;;;5115651;28;20103;-34
2023/02/26 06:01:27;;;;;;;2.08;1.00;;;;;;;;;;5115095;28;20031;-32
2023/02/26 06:03:53;;;;;;;2.47;1.30;;;;;;;;;;5115044;28;20016;-32
2023/02/26 06:06:20;;;;;;;2.97;1.35;;;;;;;;;;5115584;28;20495;-32
2023/02/26 06:08:47;;;;;;;2.67;1.50;;;;;;;;;;5115561;28;20509;-34
2023/02/26 06:11:14;;;;;;;3.47;1.50;;;;;;;;;;5115043;28;20063;-40
2023/02/26 06:13:40;;;;;;;2.47;1.17;;;;;;;;;;5115054;28;20069;-42
2023/02/26 06:16:06;;;;;;;2.40;1.30;;;;;;;;;;5114551;28;20024;-40
2023/02/26 06:18:32;;;;;;;2.97;1.27;;;;;;;;;;5115252;27;20155;-41
2023/02/26 06:20:59;;;;;;;2.65;1.40;;;;;;;;;;5114743;28;20428;-42
2023/02/26 06:23:25;;;;;;;3.00;1.25;;;;;;;;;;5114782;27;20085;-39
2023/02/26 06:25:51;;;;;;;5.25;1.30;;;;;;;;;;5116848;28;20031;-41
2023/02/26 06:28:18;;;;;;;3.92;1.48;;;;;;;;;;5116169;28;20063;-41
2023/02/26 06:30:44;;;;;;;5.35;1.40;;;;;;;;;;5114742;28;20027;-35
2023/02/26 06:33:10;;;;;;;2.10;1.23;;;;;;;;;;5115572;28;20080;-37
2023/02/26 06:35:36;;;;;;;2.88;1.20;;;;;;;;;;5115185;28;20031;-38
2023/02/26 06:38:02;;;;;;;2.53;1.08;;;;;;;;;;5114278;28;20437;-38
2023/02/26 06:40:29;;;;;;;5.50;1.35;;;;;;;;;;5115099;28;20043;-42
2023/02/26 06:42:55;;;;;;;2.70;1.48;;;;;;;;;;5114629;28;20039;-41
2023/02/26 06:45:21;;;;;;;5.90;1.35;;;;;;;;;;5115133;28;20511;-42
2023/02/26 06:47:47;;;;;;;2.60;1.15;;;;;;;;;;5113963;28;20016;-42
2023/02/26 06:50:13;;;;;;;1.98;0.88;;;;;;;;;;5114174;28;20029;-42
2023/02/26 06:52:39;;;;;;;3.42;1.70;;;;;;;;;;5115272;28;20030;-40
2023/02/26 06:55:06;;;;;;;3.95;1.40;;;;;;;;;;5113608;28;20031;-34
2023/02/26 06:57:32;;;;;;;3.38;1.20;;;;;;;;;;5114967;28;20028;-33
2023/02/26 06:59:58;;;;;;;1.92;1.08;;;;;;;;;;5113429;28;20031;-35
2023/02/26 07:02:24;;;;;;;2.83;1.25;;;;;;;;;;5114366;28;20061;-35
2023/02/26 07:04:50;;;;;;;4.97;1.63;;;;;;;;;;5114365;27;20019;-33
2023/02/26 07:07:16;;;;;;;4.65;1.60;;;;;;;;;;5114106;28;20398;-32
2023/02/26 07:09:42;;;;;;;2.47;1.20;;;;;;;;;;5114420;28;20055;-33
2023/02/26 07:12:08;;;;;;;3.60;1.50;;;;;;;;;;5114976;28;20072;-36
2023/02/26 07:14:34;;;;;;;4.03;1.50;;;;;;;;;;5114937;28;20023;-32
2023/02/26 07:17:01;;;;;;;3.25;1.50;;;;;;;;;;5113009;28;20032;-35
2023/02/26 07:19:27;;;;;;;3.00;1.20;;;;;;;;;;5114171;28;20016;-32
2023/02/26 07:21:53;;;;;;;3.08;1.30;;;;;;;;;;5115088;28;20389;-33
2023/02/26 07:24:20;;;;;;;3.60;1.60;;;;;;;;;;5115186;28;20015;-35
2023/02/26 07:26:46;;;;;;;2.30;1.38;;;;;;;;;;5114802;28;20047;-37
2023/02/26 07:29:12;;;;;;;3.30;1.60;;;;;;;;;;5114603;28;20023;-35
2023/02/26 07:31:39;;;;;;;3.13;1.48;;;;;;;;;;5113315;28;20027;-36
2023/02/26 07:34:05;;;;;;;4.85;1.60;;;;;;;;;;5113746;28;20032;-32
2023/02/26 07:36:31;;;;;;;2.10;1.17;;;;;;;;;;5114761;28;20393;-36
2023/02/26 07:38:57;;;;;;;4.65;1.60;;;;;;;;;;5113279;28;20031;-34
2023/02/26 07:41:23;;;;;;;3.00;1.10;;;;;;;;;;5113180;28;20026;-33
2023/02/26 07:43:49;;;;;;;3.05;1.30;;;;;;;;;;5113114;28;20027;-33
2023/02/26 07:46:15;;;;;;;2.78;1.48;;;;;;;;;;5113830;28;20504;-36
2023/02/26 07:48:41;;;;;;;5.68;1.40;;;;;;;;;;5113239;28;20027;-33
2023/02/26 07:51:09;;;;;;;3.60;1.30;;;;;;;;;;5114233;28;20028;-37
2023/02/26 07:53:35;;;;;;;4.57;1.42;;;;;;;;;;5113134;28;20023;-34
2023/02/26 07:56:02;;;;;;;3.67;1.35;;;;;;;;;;5111829;28;20035;-37
2023/02/26 07:58:28;;;;;;;4.60;1.40;;;;;;;;;;5112767;28;20023;-35
2023/02/26 08:00:54;;;;;;;2.85;1.40;;;;;;;;;;5112678;28;20396;-34
2023/02/26 08:03:20;;;;;;;2.08;1.00;;;;;;;;;;5112799;28;20554;-33
2023/02/26 08:05:46;;;;;;;2.15;1.20;;;;;;;;;;5112604;28;20023;-36
2023/02/26 08:08:12;;;;;;;4.13;1.30;;;;;;;;;;5113454;27;20123;-34
2023/02/26 08:10:40;;;;;;;3.78;1.40;;;;;;;;;;5113227;28;20037;-35
2023/02/26 08:13:06;;;;;;;3.40;1.42;;;;;;;;;;5112538;28;20477;-34
2023/02/26 08:15:33;;;;;;;2.85;1.30;;;;;;;;;;5111329;28;20027;-42
2023/02/26 08:17:59;;;;;;;3.40;1.27;;;;;;;;;;5114304;28;20397;-41
2023/02/26 08:20:25;;;;;;;1.67;0.82;;;;;;;;;;5112806;28;20030;-41
2023/02/26 08:22:51;;;;;;;4.68;1.23;;;;;;;;;;5112391;28;20129;-42
2023/02/26 08:25:17;;;;;;;2.55;1.17;;;;;;;;;;5113123;28;20403;-43
2023/02/26 08:27:44;;;;;;;3.70;1.30;;;;;;;;;;5113152;28;20025;-43
2023/02/26 08:30:10;;;;;;;2.95;1.33;;;;;;;;;;5113013;28;20042;-44
2023/02/26 08:32:38;;;;;;;2.65;1.27;;;;;;;;;;5113612;28;20024;-38
2023/02/26 08:35:05;;;;;;;2.45;1.10;;;;;;;;;;5112819;28;20024;-38
2023/02/26 08:37:31;;;;;;;3.70;1.23;;;;;;;;;;5112240;28;20024;-41
2023/02/26 08:39:57;;;;;;;3.05;1.50;;;;;;;;;;5112231;28;20027;-40
2023/02/26 08:42:23;;;;;;;1.80;1.15;;;;;;;;;;5112259;28;20042;-39
2023/02/26 08:44:49;;;;;;;3.38;1.08;;;;;;;;;;5111254;28;20022;-38
2023/02/26 08:47:15;;;;;;;1.92;1.10;;;;;;;;;;5112201;28;20038;-39
2023/02/26 08:49:41;;;;;;;1.92;1.10;;;;;;;;;;5112326;28;20512;-40
2023/02/26 08:52:08;;;;;;;2.47;1.20;;;;;;;;;;5112297;28;20030;-40
2023/02/26 08:54:35;;;;;;;2.10;1.05;;;;;;;;;;5111256;28;20054;-42
2023/02/26 08:57:02;;;;;;;2.83;1.30;;;;;;;;;;5110543;28;20442;-40
2023/02/26 08:59:28;;;;;;;2.90;1.20;;;;;;;;;;5110606;28;20059;-41
2023/02/26 09:01:54;;;;;;;2.45;1.15;;;;;;;;;;5111970;28;20051;-41
2023/02/26 09:04:20;;;;;;;3.15;1.13;;;;;;;;;;5112034;28;20024;-41
2023/02/26 09:06:46;;;;;;;3.20;1.40;;;;;;;;;;5111607;28;20088;-41
2023/02/26 09:09:13;;;;;;;2.15;1.20;;;;;;;;;;5112062;28;20485;-41
2023/02/26 09:11:39;;;;;;;2.55;1.00;;;;;;;;;;5111848;28;20517;-42
2023/02/26 09:14:05;;;;;;;2.83;1.50;;;;;;;;;;5112091;28;20024;-41
2023/02/26 09:16:35;;;;;;;3.55;1.00;;;;;;;;;;5111829;28;20023;-42
2023/02/26 09:19:01;;;;;;;4.32;1.52;;;;;;;;;;5110421;28;20024;-36
2023/02/26 09:21:27;;;;;;;2.85;1.15;;;;;;;;;;5112151;28;20076;-41
2023/02/26 09:23:53;;;;;;;1.98;1.10;;;;;;;;;;5112706;28;20473;-41
2023/02/26 09:26:19;;;;;;;2.83;1.10;;;;;;;;;;5110682;28;20100;-40
2023/02/26 09:28:45;;;;;;;2.47;1.27;;;;;;;;;;5111610;28;20048;-42
2023/02/26 09:31:11;;;;;;;3.28;1.10;;;;;;;;;;5111640;28;20504;-42
2023/02/26 09:33:38;;;;;;;2.33;0.90;;;;;;;;;;5111671;28;20027;-37
2023/02/26 09:36:04;;;;;;;1.60;1.13;;;;;;;;;;5111318;28;20019;-37
2023/02/26 09:38:30;;;;;;;3.53;1.50;;;;;;;;;;5111414;28;20047;-40
2023/02/26 09:41:02;;;;;;;2.80;1.27;;;;;;;;;;5112133;28;20104;-40
2023/02/26 09:43:47;;;;;;;3.10;1.40;;;;;;;;;;5111975;28;20020;-38
2023/02/26 09:46:28;;;;;;;3.83;1.30;;;;;;;;;;5111214;28;20020;-40
2023/02/26 09:49:00;;;;;;;2.58;1.08;;;;;;;;;;5111928;28;20071;-31
2023/02/26 09:51:26;;;;;;;2.53;1.10;;;;;;;;;;5111361;28;20488;-34
2023/02/26 09:53:52;;;;;;;2.75;1.20;;;;;;;;;;5111854;28;20042;-33
2023/02/26 09:56:21;;;;;;;2.47;1.13;;;;;;;;;;5111349;28;20716;-32
2023/02/26 09:58:47;;;;;;;2.33;1.10;;;;;;;;;;5111287;28;20381;-37
2023/02/26 10:01:28;;;;;;;2.33;1.40;;;;;;;;;;5111077;28;20085;-41
2023/02/26 10:04:01;;;;;;;2.15;1.20;;;;;;;;;;5111889;28;20110;-38
2023/02/26 10:06:27;;;;;;;2.30;1.00;;;;;;;;;;5111025;28;20031;-33
2023/02/26 10:08:56;;;;;;;3.45;1.30;;;;;;;;;;5111187;28;20100;-39
2023/02/26 10:11:22;;;;;;;2.20;1.15;;;;;;;;;;5111898;28;20023;-40
2023/02/26 10:13:51;;;;;;;3.22;1.05;;;;;;;;;;5111765;28;20387;-42
2023/02/26 10:16:22;;;;;;;2.05;1.00;;;;;;;;;;5110858;28;20485;-42
2023/02/26 10:18:51;;;;;;;2.15;1.20;;;;;;;;;;5113009;28;20482;-40
2023/02/26 10:21:33;;;;;;;2.33;1.00;;;;;;;;;;5114759;28;20493;-40
2023/02/26 10:24:07;;;;;;;2.47;1.00;;;;;;;;;;5114606;28;20106;-38
2023/02/26 10:26:37;;;;;;;2.25;1.23;;;;;;;;;;5115302;28;20035;-37
2023/02/26 10:29:17;;;;;;;3.03;1.10;;;;;;;;;;5114791;28;20031;-37
2023/02/26 10:31:59;;;;;;;2.88;1.25;;;;;;;;;;5115220;28;20028;-41
2023/02/26 10:34:29;;;;;;;3.55;1.20;;;;;;;;;;5115225;28;20030;-39
2023/02/26 10:36:55;;;;;;;4.45;1.10;;;;;;;;;;5114717;28;20051;-33
2023/02/26 10:39:31;;;;;;;3.33;1.20;;;;;;;;;;5114561;27;20051;-39
2023/02/26 10:41:59;;;;;;;2.47;1.00;;;;;;;;;;5114355;28;20102;-41
2023/02/26 10:44:34;;;;;;;1.58;1.00;;;;;;;;;;5114402;27;20051;-38
2023/02/26 10:47:03;;;;;;;3.88;1.30;;;;;;;;;;5113952;28;20080;-33
2023/02/26 10:49:48;;;;;;;2.90;1.33;;;;;;;;;;5114350;28;20031;-33
2023/02/26 10:52:16;;;;;;;3.55;1.35;;;;;;;;;;5114126;28;20038;-38
2023/02/26 10:55:01;;;;;;;3.58;1.02;;;;;;;;;;5114846;28;20031;-39
2023/02/26 10:57:31;;;;;;;3.05;0.90;;;;;;;;;;5113733;28;20466;-42
2023/02/26 10:59:59;;;;;;;1.90;0.98;;;;;;;;;;5114224;28;20281;-41
2023/02/26 11:02:45;;;;;;;4.38;1.05;;;;;;;;;;5114420;28;20094;-35
2023/02/26 11:05:19;;;;;;;2.53;1.08;;;;;;;;;;5114073;28;20031;-33
2023/02/26 11:07:47;;;;;;;3.47;0.98;;;;;;;;;;5113550;28;20058;-40
2023/02/26 11:10:22;;;;;;;4.53;0.85;;;;;;;;;;5113861;28;20119;-39
2023/02/26 11:12:48;;;;;;;2.60;1.05;;;;;;;;;;5114298;28;20027;-38
2023/02/26 11:15:19;;;;;;;1.48;0.88;;;;;;;;;;5112567;28;20035;-38
2023/02/26 11:17:47;;;;;;;1.25;1.00;;;;;;;;;;5100521;27;20024;-39
2023/02/26 11:20:19;;;;;;;1.75;1.00;;;;;;;;;;5093353;28;20078;-41
2023/02/26 11:22:48;;;;;;;2.90;1.10;;;;;;;;;;5093095;28;20024;-38
2023/02/26 11:25:17;;;;;;;2.53;1.05;;;;;;;;;;5093102;28;20024;-34
2023/02/26 11:27:46;;;;;;;3.53;1.08;;;;;;;;;;5075610;28;20047;-40
2023/02/26 11:30:17;;;;;;;3.03;1.17;;;;;;;;;;5093177;28;20493;-41
2023/02/26 11:32:44;;;;;;;1.52;0.90;;;;;;;;;;5093014;28;20388;-37
2023/02/26 11:35:13;;;;;;;3.35;1.00;;;;;;;;;;5093052;28;20081;-36
2023/02/26 11:37:40;;;;;;;1.88;1.02;;;;;;;;;;5092740;28;20032;-36
2023/02/26 11:40:13;;;;;;;1.67;1.13;;;;;;;;;;5093575;28;20385;-35
2023/02/26 11:42:43;;;;;;;2.45;1.02;;;;;;;;;;5093217;28;20031;-32
2023/02/26 11:45:13;;;;;;;2.58;0.95;;;;;;;;;;5092826;28;20027;-33
2023/02/26 11:47:39;;;;;;;2.33;1.08;;;;;;;;;;5092537;28;20112;-37
2023/02/26 11:50:12;;;;;;;2.28;1.15;;;;;;;;;;5092704;28;20032;-42
2023/02/26 11:52:43;;;;;;;2.28;1.00;;;;;;;;;;5093263;28;20024;-40
2023/02/26 11:55:20;;;;;;;1.70;0.80;;;;;;;;;;5092603;28;20031;-42
2023/02/26 11:57:52;;;;;;;1.80;0.90;;;;;;;;;;5092189;28;20027;-41
2023/02/26 12:00:20;;;;;;;2.45;0.98;;;;;;;;;;5092450;28;20505;-37
2023/02/26 12:02:46;;;;;;;2.03;1.00;;;;;;;;;;5091143;28;20028;-36
2023/02/26 12:05:15;;;;;;;1.20;0.80;;;;;;;;;;5092642;28;20024;-40
2023/02/26 12:07:42;;;;;;;1.90;0.90;;;;;;;;;;5092782;28;20062;-41
2023/02/26 12:10:19;;;;;;;2.65;1.08;;;;;;;;;;5091089;28;20024;-32
2023/02/26 12:13:08;;;;;;;1.50;0.93;;;;;;;;;;5092931;28;20028;-35
2023/02/26 12:15:42;;;;;;;2.20;0.88;;;;;;;;;;5092036;28;20077;-36
2023/02/26 12:18:09;;;;;;;1.73;0.85;;;;;;;;;;5092134;28;20016;-42
2023/02/26 12:20:35;;;;;;;2.55;1.00;;;;;;;;;;5092017;28;20016;-37
2023/02/26 12:23:20;;;;;;;1.67;0.80;;;;;;;;;;5092405;28;20032;-38
2023/02/26 12:26:05;;;;;;;3.30;0.90;;;;;;;;;;5091867;28;20500;-42
2023/02/26 12:28:43;;;;;;;2.85;0.88;;;;;;;;;;5092148;28;20016;-35
2023/02/26 12:31:14;;;;;;;1.90;0.93;;;;;;;;;;5091961;28;20205;-42
2023/02/26 12:33:53;;;;;;;1.65;0.75;;;;;;;;;;5091990;28;20016;-38
2023/02/26 12:36:35;;;;;;;2.08;1.10;;;;;;;;;;5090240;28;20032;-36
2023/02/26 12:39:22;;;;;;;1.45;1.00;;;;;;;;;;5092121;28;20024;-37
2023/02/26 12:42:07;;;;;;;1.85;0.90;;;;;;;;;;5091061;28;20028;-38
2023/02/26 12:44:52;;;;;;;1.63;0.90;;;;;;;;;;5091758;28;20024;-41
2023/02/26 12:47:41;;;;;;;1.85;0.88;;;;;;;;;;5091427;28;20043;-40
2023/02/26 12:50:16;;;;;;;1.75;0.80;;;;;;;;;;5091946;28;20027;-41
2023/02/26 12:52:57;;;;;;;1.58;0.80;;;;;;;;;;5092144;28;20027;-35
2023/02/26 12:55:28;;;;;;;1.13;0.73;;;;;;;;;;5092077;28;20060;-42
2023/02/26 12:57:57;;;;;;;2.10;1.17;;;;;;;;;;5091358;28;20035;-40
2023/02/26 13:00:42;;;;;;;1.17;0.88;;;;;;;;;;5091472;28;20039;-34
2023/02/26 13:03:26;;;;;;;1.38;1.10;;;;;;;;;;5091588;28;20076;-42
2023/02/26 13:06:15;;;;;;;1.95;0.88;;;;;;;;;;5091332;28;20474;-41
2023/02/26 13:08:59;;;;;;;1.13;0.80;;;;;;;;;;5091468;28;20052;-40
2023/02/26 13:11:44;;;;;;;1.42;0.85;;;;;;;;;;5091535;28;20059;-41
2023/02/26 13:14:17;;;;;;;1.50;1.00;;;;;;;;;;5091715;28;20028;-42
2023/02/26 13:16:52;;;;;;;2.88;1.00;;;;;;;;;;5091020;28;20032;-37
2023/02/26 13:19:31;;;;;;;0.98;0.80;;;;;;;;;;5091413;28;20021;-35
2023/02/26 13:22:04;;;;;;;1.48;0.95;;;;;;;;;;5091143;28;20089;-35
2023/02/26 13:24:42;;;;;;;1.50;1.10;;;;;;;;;;5091419;28;20021;-33
2023/02/26 13:27:09;;;;;;;1.10;0.90;;;;;;;;;;5090983;28;20034;-37
2023/02/26 13:29:39;;;;;;;1.48;0.80;;;;;;;;;;5091169;28;20028;-31
2023/02/26 13:32:12;;;;;;;1.60;1.02;;;;;;;;;;5091371;28;20052;-32
2023/02/26 13:34:43;;;;;;;1.67;1.10;;;;;;;;;;5091168;28;20508;-35
2023/02/26 13:37:29;;;;;;;1.80;1.13;;;;;;;;;;5091040;28;20493;-32
2023/02/26 13:40:11;;;;;;;1.60;0.90;;;;;;;;;;5091259;28;20061;-32
2023/02/26 13:42:50;;;;;;;2.13;1.17;;;;;;;;;;5091067;28;20488;-32
2023/02/26 13:45:36;;;;;;;1.30;0.82;;;;;;;;;;5091734;28;20034;-34
2023/02/26 13:48:08;;;;;;;1.58;0.90;;;;;;;;;;5090786;28;20035;-40
2023/02/26 13:50:43;;;;;;;1.60;0.90;;;;;;;;;;5090994;28;20382;-33
2023/02/26 13:53:26;;;;;;;1.92;1.20;;;;;;;;;;5093613;28;20029;-35
2023/02/26 13:55:53;;;;;;;1.70;1.00;;;;;;;;;;5094997;28;20016;-39
2023/02/26 13:58:22;;;;;;;1.08;0.80;;;;;;;;;;5094823;28;20049;-39
2023/02/26 14:01:01;;;;;;;1.58;0.90;;;;;;;;;;5094885;28;20031;-42
2023/02/26 14:03:27;;;;;;;1.75;0.80;;;;;;;;;;5094768;28;20497;-37
2023/02/26 14:05:53;;;;;;;1.40;0.90;;;;;;;;;;5094772;28;20035;-35
2023/02/26 14:08:38;;;;;;;1.90;1.00;;;;;;;;;;5093945;28;20047;-33
2023/02/26 14:11:05;;;;;;;1.23;0.80;;;;;;;;;;5095091;28;20016;-33
2023/02/26 14:13:40;;;;;;;1.90;1.20;;;;;;;;;;5094914;28;20058;-32
2023/02/26 14:16:09;;;;;;;1.00;0.80;;;;;;;;;;5094235;28;20028;-42
2023/02/26 14:18:41;;;;;;;2.08;0.90;;;;;;;;;;5094439;28;20020;-41
2023/02/26 14:21:26;;;;;;;1.15;0.70;;;;;;;;;;5094386;28;20534;-38
2023/02/26 14:24:06;;;;;;;1.15;0.98;;;;;;;;;;5094679;28;20111;-36
2023/02/26 14:26:34;;;;;;;1.30;0.90;;;;;;;;;;5094112;28;20035;-35
2023/02/26 14:29:06;;;;;;;1.23;0.90;;;;;;;;;;5094308;28;20023;-37
2023/02/26 14:31:51;;;;;;;1.98;1.13;;;;;;;;;;5094250;28;20020;-42
2023/02/26 14:34:29;;;;;;;1.27;0.80;;;;;;;;;;5094359;28;20435;-36
2023/02/26 14:36:59;;;;;;;0.82;0.75;;;;;;;;;;5093812;28;20095;-35
2023/02/26 14:39:25;;;;;;;1.10;0.90;;;;;;;;;;5094409;28;20478;-42
2023/02/26 14:41:55;;;;;;;1.35;0.90;;;;;;;;;;5094156;28;20024;-33
2023/02/26 14:44:24;;;;;;;2.13;0.80;;;;;;;;;;5093966;28;20020;-35
2023/02/26 14:46:50;;;;;;;1.83;0.88;;;;;;;;;;5093757;28;20020;-41
2023/02/26 14:49:30;;;;;;;1.13;0.82;;;;;;;;;;5093879;28;20390;-41
2023/02/26 14:52:04;;;;;;;1.27;0.95;;;;;;;;;;5093783;28;20424;-42
2023/02/26 14:54:49;;;;;;;0.90;0.70;;;;;;;;;;5093865;28;20032;-41
2023/02/26 14:57:15;;;;;;;1.73;0.90;;;;;;;;;;5093506;28;20393;-37
2023/02/26 14:59:44;;;;;;;2.30;0.93;;;;;;;;;;5093739;28;20036;-39
2023/02/26 15:02:16;;;;;;;0.98;0.82;;;;;;;;;;5093852;28;20489;-42